Time;durP1;ratioP1;P1;durP2;ratioP2;P2;SDS_P1;SDS_P2;PMS_P1;PMS_P2;Temp;Humidity;BMP_temperature;BMP_pressure;BME280_temperature;BME280_humidity;BME280_pressure;Samples;Min_cycle;Max_cycle;Signal;HPM_P1;HPM_P2
2023/12/30 00:01:43;;;;;;;4.20;2.30;;;;;;;9.56;76.11;97866.00;4945785;29;20027;-73
2023/12/30 00:04:09;;;;;;;3.22;1.95;;;;;;;9.60;75.68;97865.28;4947541;28;20399;-73
2023/12/30 00:06:34;;;;;;;3.75;2.05;;;;;;;9.57;76.44;97879.19;4962802;28;20022;-73
2023/12/30 00:09:00;;;;;;;2.60;1.77;;;;;;;9.49;76.44;97863.50;4934283;28;20045;-73
2023/12/30 00:11:25;;;;;;;3.40;1.77;;;;;;;9.57;76.75;97876.50;4945510;29;20356;-72
2023/12/30 00:13:51;;;;;;;3.30;1.85;;;;;;;9.56;76.82;97882.97;4964444;28;20062;-72
2023/12/30 00:16:16;;;;;;;2.08;1.70;;;;;;;9.50;77.03;97878.53;4961965;28;20527;-73
2023/12/30 00:18:42;;;;;;;3.67;2.00;;;;;;;9.60;76.94;97892.16;4936421;28;20047;-73
2023/12/30 00:21:07;;;;;;;5.60;2.25;;;;;;;9.61;76.89;97891.06;4958981;28;20023;-72
2023/12/30 00:23:35;;;;;;;3.90;1.90;;;;;;;9.53;76.92;97886.13;4946800;29;20093;-71
2023/12/30 00:26:00;;;;;;;4.22;1.80;;;;;;;9.63;76.92;97894.38;4971602;28;20501;-72
2023/12/30 00:28:26;;;;;;;4.05;2.05;;;;;;;9.64;77.28;97881.72;4936304;29;20106;-72
2023/12/30 00:30:51;;;;;;;5.68;1.95;;;;;;;9.67;77.14;97875.84;4955714;28;20399;-72
2023/12/30 00:33:17;;;;;;;2.10;1.50;;;;;;;9.60;77.36;97877.91;4961513;28;20110;-71
2023/12/30 00:35:44;;;;;;;2.75;1.70;;;;;;;9.55;77.89;97875.13;4948512;28;20407;-72
2023/12/30 00:38:09;;;;;;;3.97;1.80;;;;;;;9.48;78.03;97891.41;4952532;28;20109;-72
2023/12/30 00:40:35;;;;;;;4.05;1.80;;;;;;;9.56;78.40;97888.34;4944844;29;20569;-72
2023/12/30 00:43:00;;;;;;;2.80;1.60;;;;;;;9.42;79.12;97875.47;4956975;28;20050;-73
2023/12/30 00:45:26;;;;;;;3.40;1.80;;;;;;;9.40;79.87;97889.16;4964758;28;20117;-71
2023/12/30 00:47:52;;;;;;;3.15;1.90;;;;;;;9.39;79.64;97876.75;4961711;28;20114;-74
2023/12/30 00:50:17;;;;;;;2.92;1.95;;;;;;;9.43;79.57;97867.16;4950329;28;20023;-73
2023/12/30 00:52:43;;;;;;;4.50;2.00;;;;;;;9.50;79.81;97872.34;4947231;29;20431;-72
2023/12/30 00:55:08;;;;;;;3.42;1.95;;;;;;;9.46;80.06;97880.09;4948356;29;20063;-72
2023/12/30 00:57:33;;;;;;;3.92;2.10;;;;;;;9.48;80.36;97886.03;4922719;29;20086;-72
2023/12/30 00:59:59;;;;;;;3.72;1.98;;;;;;;9.51;80.23;97880.19;4950578;28;20026;-72
2023/12/30 01:02:24;;;;;;;4.95;1.90;;;;;;;9.54;80.36;97895.84;4938173;29;20042;-71
2023/12/30 01:04:51;;;;;;;5.93;2.20;;;;;;;9.53;80.92;97880.75;4949978;29;20395;-70
2023/12/30 01:07:16;;;;;;;4.10;2.05;;;;;;;9.40;80.92;97886.47;4948358;29;20031;-71
2023/12/30 01:09:42;;;;;;;5.38;2.00;;;;;;;9.47;80.89;97894.38;4965689;28;20062;-72
2023/12/30 01:12:07;;;;;;;2.67;1.83;;;;;;;9.36;81.10;97871.88;4945856;29;20066;-72
2023/12/30 01:14:33;;;;;;;2.75;2.20;;;;;;;9.48;81.00;97891.41;4947846;28;20441;-71
2023/12/30 01:16:59;;;;;;;4.35;2.20;;;;;;;9.50;80.47;97878.53;4957453;28;20031;-72
2023/12/30 01:19:25;;;;;;;4.50;2.22;;;;;;;9.35;81.10;97883.69;4946030;28;20111;-72
2023/12/30 01:21:50;;;;;;;3.53;1.92;;;;;;;9.39;80.77;97887.50;4922719;28;20039;-73
2023/12/30 01:24:16;;;;;;;2.65;1.75;;;;;;;9.34;81.06;97865.94;4925451;29;20034;-72
2023/12/30 01:26:41;;;;;;;3.15;1.83;;;;;;;9.33;80.42;97869.69;4944815;29;20039;-71
2023/12/30 01:29:07;;;;;;;4.28;2.03;;;;;;;9.25;80.86;97880.84;4928250;29;20027;-72
2023/12/30 01:31:34;;;;;;;4.50;2.10;;;;;;;9.23;80.62;97882.94;4919172;29;20083;-73
2023/12/30 01:33:59;;;;;;;5.22;2.10;;;;;;;9.18;80.67;97880.19;4941449;28;20019;-71
2023/12/30 01:36:25;;;;;;;4.70;2.00;;;;;;;9.18;80.53;97912.41;4925791;29;20491;-72
2023/12/30 01:38:50;;;;;;;5.47;1.77;;;;;;;9.21;80.23;97903.88;4953762;28;20173;-72
2023/12/30 01:41:15;;;;;;;2.88;1.92;;;;;;;9.24;80.42;97911.44;4963334;28;20035;-72
2023/12/30 01:43:41;;;;;;;3.80;1.98;;;;;;;9.19;80.74;97914.06;4969864;28;20463;-72
2023/12/30 01:46:08;;;;;;;4.50;2.22;;;;;;;9.28;79.94;97909.91;4945232;29;20043;-73
2023/12/30 01:48:33;;;;;;;5.22;2.00;;;;;;;9.17;79.98;97894.66;4938853;28;20439;-72
2023/12/30 01:51:00;;;;;;;4.32;1.90;;;;;;;9.33;79.60;97926.13;4942746;28;20038;-72
2023/12/30 01:53:26;;;;;;;3.53;2.05;;;;;;;9.33;79.71;97915.38;4965291;28;20501;-72
2023/12/30 01:55:52;;;;;;;5.25;2.00;;;;;;;9.22;79.35;97892.06;4932114;28;20039;-72
2023/12/30 01:58:18;;;;;;;4.95;2.10;;;;;;;9.24;79.81;97905.28;4950040;28;20045;-72
2023/12/30 02:00:47;;;;;;;4.10;2.20;;;;;;;9.20;79.62;97910.28;4965166;28;20039;-72
2023/12/30 02:03:12;;;;;;;6.03;2.40;;;;;;;9.24;79.58;97924.88;4940658;29;20035;-71
2023/12/30 02:05:38;;;;;;;4.65;2.10;;;;;;;9.27;79.06;97919.00;4936945;29;20036;-71
2023/12/30 02:08:04;;;;;;;4.00;2.17;;;;;;;9.13;79.32;97909.63;4958259;28;20038;-72
2023/12/30 02:10:29;;;;;;;4.40;2.03;;;;;;;9.16;79.83;97922.59;4964807;28;20412;-72
2023/12/30 02:12:55;;;;;;;5.07;1.90;;;;;;;9.23;78.99;97930.50;4938470;29;20031;-73
2023/12/30 02:15:21;;;;;;;3.22;1.80;;;;;;;9.07;79.58;97918.66;4930071;29;20039;-72
2023/12/30 02:17:50;;;;;;;4.15;2.13;;;;;;;9.02;79.06;97910.50;4938543;29;20034;-71
2023/12/30 02:20:16;;;;;;;3.97;2.03;;;;;;;9.08;78.97;97904.16;4954078;29;20058;-72
2023/12/30 02:22:44;;;;;;;5.05;1.70;;;;;;;9.19;78.75;97927.50;4932401;29;20032;-71
2023/12/30 02:25:11;;;;;;;3.75;1.90;;;;;;;9.16;78.66;97930.66;4966150;28;20034;-72
2023/12/30 02:27:37;;;;;;;4.60;2.13;;;;;;;9.19;78.43;97923.97;4950539;28;20026;-73
2023/12/30 02:30:03;;;;;;;4.95;2.10;;;;;;;9.24;78.11;97938.31;4959065;28;20101;-73
2023/12/30 02:32:29;;;;;;;5.10;2.00;;;;;;;9.18;78.31;97933.91;4948337;28;20031;-73
2023/12/30 02:34:54;;;;;;;3.17;1.85;;;;;;;9.08;78.65;97928.34;4921357;28;20035;-73
2023/12/30 02:37:19;;;;;;;4.07;1.90;;;;;;;9.19;78.20;97929.34;4925861;28;20110;-73
2023/12/30 02:39:45;;;;;;;3.20;1.95;;;;;;;9.18;77.56;97931.22;4932993;28;20035;-73
2023/12/30 02:42:11;;;;;;;2.97;1.50;;;;;;;9.16;77.96;97936.03;4944292;28;20479;-73
2023/12/30 02:44:36;;;;;;;3.08;1.80;;;;;;;9.21;77.76;97938.81;4930789;29;20126;-72
2023/12/30 02:47:02;;;;;;;2.38;1.73;;;;;;;9.24;77.74;97932.94;4957389;28;20050;-73
2023/12/30 02:49:27;;;;;;;3.13;1.60;;;;;;;9.24;78.07;97946.34;4928104;29;20069;-74
2023/12/30 02:51:53;;;;;;;1.92;1.55;;;;;;;9.16;77.37;97924.44;4956687;28;20101;-73
2023/12/30 02:54:19;;;;;;;2.13;1.65;;;;;;;9.22;77.12;97935.03;4943880;28;20062;-74
2023/12/30 02:56:45;;;;;;;4.75;1.77;;;;;;;9.23;77.55;97942.06;4959762;28;20558;-72
2023/12/30 02:59:10;;;;;;;1.90;1.70;;;;;;;9.28;77.08;97944.84;4927065;29;20435;-72
2023/12/30 03:01:37;;;;;;;3.85;1.70;;;;;;;9.20;76.79;97925.59;4946132;28;20210;-72
2023/12/30 03:04:02;;;;;;;3.65;1.63;;;;;;;9.25;77.42;97944.50;4931638;28;20066;-72
2023/12/30 03:06:29;;;;;;;4.65;1.70;;;;;;;9.29;77.21;97951.03;4933093;28;20023;-73
2023/12/30 03:08:54;;;;;;;3.22;1.92;;;;;;;9.21;77.63;97933.44;4921116;29;20126;-74
2023/12/30 03:11:20;;;;;;;4.65;1.98;;;;;;;9.25;77.52;97961.44;4947423;29;20038;-74
2023/12/30 03:13:46;;;;;;;2.38;1.60;;;;;;;9.26;77.95;97957.72;4939759;28;20043;-73
2023/12/30 03:16:13;;;;;;;3.25;1.75;;;;;;;9.16;77.69;97952.16;4932551;28;20085;-74
2023/12/30 03:18:39;;;;;;;6.00;1.80;;;;;;;9.21;78.10;97965.66;4935126;29;20131;-74
2023/12/30 03:21:07;;;;;;;4.05;1.77;;;;;;;9.21;78.17;97954.94;4929099;29;20110;-75
2023/12/30 03:23:36;;;;;;;5.07;2.30;;;;;;;9.17;78.39;97958.34;4929327;28;20039;-74
2023/12/30 03:26:03;;;;;;;6.18;1.90;;;;;;;9.16;78.04;97956.69;4929534;28;20027;-74
2023/12/30 03:28:28;;;;;;;3.47;1.80;;;;;;;9.13;78.75;97958.00;4942461;29;20047;-76
2023/12/30 03:30:54;;;;;;;4.40;2.20;;;;;;;9.24;78.40;97962.47;4954397;28;20074;-73
2023/12/30 03:33:19;;;;;;;4.45;1.80;;;;;;;9.21;78.26;97960.31;4946273;28;20039;-74
2023/12/30 03:35:44;;;;;;;3.15;1.83;;;;;;;9.07;78.61;97942.84;4927295;28;20499;-75
2023/12/30 03:38:10;;;;;;;5.50;1.90;;;;;;;9.24;78.17;97965.16;4911998;29;20031;-74
2023/12/30 03:40:35;;;;;;;3.97;1.70;;;;;;;9.25;78.78;97961.44;4936893;28;20586;-74
2023/12/30 03:43:01;;;;;;;2.80;1.60;;;;;;;9.25;78.14;97971.38;4921460;28;20039;-74
2023/12/30 03:45:27;;;;;;;5.10;2.17;;;;;;;9.21;78.69;97968.34;4952744;29;20106;-74
2023/12/30 03:47:52;;;;;;;4.30;1.77;;;;;;;9.11;78.48;97944.00;4936806;28;20028;-74
2023/12/30 03:50:18;;;;;;;2.97;1.70;;;;;;;9.17;77.67;97952.97;4927247;29;20031;-74
2023/12/30 03:52:43;;;;;;;3.15;1.83;;;;;;;9.12;78.15;97945.63;4929676;29;20043;-72
2023/12/30 03:55:09;;;;;;;4.60;1.70;;;;;;;9.11;78.02;97944.00;4915764;29;20086;-72
2023/12/30 03:57:34;;;;;;;2.88;1.85;;;;;;;9.26;78.11;97962.25;4952782;28;20407;-72
2023/12/30 04:00:00;;;;;;;2.85;1.65;;;;;;;9.28;77.83;97960.13;4946555;28;20031;-72
2023/12/30 04:02:26;;;;;;;2.95;1.73;;;;;;;9.07;78.50;97953.59;4963899;28;20038;-72
2023/12/30 04:04:52;;;;;;;5.82;1.80;;;;;;;9.22;77.93;97969.19;4952535;28;20478;-72
2023/12/30 04:07:18;;;;;;;5.03;1.95;;;;;;;9.23;78.06;97976.16;4943676;29;20081;-70
2023/12/30 04:09:43;;;;;;;3.33;1.60;;;;;;;9.19;77.66;97970.47;4939028;28;20101;-70
2023/12/30 04:12:09;;;;;;;3.50;1.70;;;;;;;9.14;78.13;97966.88;4955830;28;20059;-70
2023/12/30 04:14:34;;;;;;;4.10;1.80;;;;;;;9.15;78.24;97972.00;4936324;29;20034;-72
2023/12/30 04:17:00;;;;;;;4.15;1.90;;;;;;;9.21;78.06;97971.03;4938070;28;21394;-72
2023/12/30 04:19:25;;;;;;;3.63;1.90;;;;;;;9.21;78.27;97976.41;4941795;29;20027;-74
2023/12/30 04:21:51;;;;;;;6.03;1.90;;;;;;;9.22;78.36;97982.63;4930236;28;20043;-73
2023/12/30 04:24:17;;;;;;;3.30;1.98;;;;;;;9.20;77.84;97980.16;4964787;28;20042;-74
2023/12/30 04:26:43;;;;;;;4.35;1.88;;;;;;;9.13;78.32;97986.72;4962670;28;20075;-73
2023/12/30 04:29:09;;;;;;;3.75;2.00;;;;;;;9.16;78.13;97975.50;4938227;29;20494;-73
2023/12/30 04:31:35;;;;;;;5.40;2.00;;;;;;;9.21;78.51;97987.16;4944021;29;20035;-71
2023/12/30 04:34:00;;;;;;;3.08;1.70;;;;;;;9.16;78.27;97995.13;4919839;29;20665;-73
2023/12/30 04:36:25;;;;;;;5.78;1.98;;;;;;;9.19;77.75;97983.91;4912933;29;20106;-74
2023/12/30 04:38:52;;;;;;;5.40;1.65;;;;;;;9.30;77.76;97999.16;4952176;28;20035;-73
2023/12/30 04:41:20;;;;;;;2.03;1.30;;;;;;;9.10;77.86;97973.78;4917491;29;20031;-72
2023/12/30 04:43:45;;;;;;;3.03;1.90;;;;;;;9.25;77.71;97992.84;4932409;28;20503;-72
2023/12/30 04:46:14;;;;;;;3.08;2.00;;;;;;;9.35;77.45;97996.56;4917030;29;20070;-72
2023/12/30 04:48:39;;;;;;;3.08;1.55;;;;;;;9.31;77.46;97992.72;4925084;29;20061;-72
2023/12/30 04:51:05;;;;;;;4.05;1.75;;;;;;;9.30;77.67;98001.03;4936553;29;20035;-73
2023/12/30 04:53:33;;;;;;;4.38;1.90;;;;;;;9.21;77.86;98002.47;4934664;28;20035;-74
2023/12/30 04:55:58;;;;;;;3.28;1.77;;;;;;;9.22;77.45;98002.22;4939520;28;20035;-72
2023/12/30 04:58:23;;;;;;;3.97;1.67;;;;;;;9.24;78.47;98016.22;4964568;28;20073;-72
2023/12/30 05:00:49;;;;;;;5.15;2.08;;;;;;;9.24;78.01;97992.03;4925029;29;20044;-72
2023/12/30 05:03:15;;;;;;;2.97;1.70;;;;;;;9.30;78.03;98020.66;4955866;28;20105;-72
2023/12/30 05:05:40;;;;;;;2.42;1.75;;;;;;;9.22;78.42;98023.72;4921849;29;20039;-72
2023/12/30 05:08:07;;;;;;;5.07;1.95;;;;;;;9.09;78.37;98001.69;4938197;28;20102;-71
2023/12/30 05:10:33;;;;;;;3.38;1.90;;;;;;;9.17;78.62;98022.81;4947424;29;20139;-71
2023/12/30 05:13:00;;;;;;;3.60;1.70;;;;;;;9.23;78.28;98016.47;4937632;28;20058;-71
2023/12/30 05:15:25;;;;;;;3.80;1.67;;;;;;;9.27;78.64;98028.34;4912155;29;20035;-71
2023/12/30 05:17:51;;;;;;;2.58;1.80;;;;;;;9.14;78.57;98017.91;4943250;29;20408;-71
2023/12/30 05:20:17;;;;;;;3.63;1.80;;;;;;;9.19;78.66;98034.97;4959947;28;20031;-71
2023/12/30 05:22:43;;;;;;;3.83;2.00;;;;;;;9.07;78.70;98019.91;4965496;28;20027;-72
2023/12/30 05:25:09;;;;;;;3.97;2.03;;;;;;;9.19;78.87;98031.44;4962117;28;20042;-71
2023/12/30 05:27:35;;;;;;;2.80;1.90;;;;;;;9.12;78.62;98020.84;4936732;29;20604;-71
2023/12/30 05:30:00;;;;;;;4.00;1.83;;;;;;;9.04;78.87;98046.22;4957473;28;20043;-70
2023/12/30 05:32:26;;;;;;;4.28;1.98;;;;;;;8.93;79.14;98017.53;4963398;28;20033;-71
2023/12/30 05:34:51;;;;;;;2.92;1.98;;;;;;;9.05;78.95;98044.34;4958328;28;20496;-71
2023/12/30 05:37:16;;;;;;;3.58;1.80;;;;;;;9.00;78.81;98044.25;4941095;28;20027;-71
2023/12/30 05:39:42;;;;;;;2.47;1.90;;;;;;;9.05;78.87;98053.19;4958985;28;20046;-71
2023/12/30 05:42:07;;;;;;;4.07;1.88;;;;;;;9.07;78.47;98055.66;4947218;29;20403;-70
2023/12/30 05:44:33;;;;;;;3.35;1.80;;;;;;;9.07;78.23;98055.66;4963989;28;20055;-70
2023/12/30 05:46:58;;;;;;;5.68;2.08;;;;;;;8.96;78.50;98032.34;4959275;28;20023;-72
2023/12/30 05:49:23;;;;;;;4.85;1.80;;;;;;;8.99;78.69;98058.72;4947029;28;20095;-72
2023/12/30 05:51:50;;;;;;;3.17;1.80;;;;;;;8.88;78.81;98046.13;4970106;28;20058;-71
2023/12/30 05:54:15;;;;;;;3.80;1.75;;;;;;;8.99;79.00;98059.53;4943305;28;20032;-70
2023/12/30 05:56:40;;;;;;;4.05;1.95;;;;;;;9.01;79.37;98061.97;4956784;28;20545;-71
2023/12/30 05:59:06;;;;;;;3.75;2.20;;;;;;;8.89;79.07;98042.41;4959534;28;20087;-72
2023/12/30 06:01:31;;;;;;;2.70;1.77;;;;;;;9.04;78.79;98062.31;4956386;28;20034;-71
2023/12/30 06:03:58;;;;;;;4.07;2.10;;;;;;;8.92;79.41;98052.66;4964694;28;20058;-72
2023/12/30 06:06:23;;;;;;;3.70;2.03;;;;;;;9.00;78.74;98050.44;4938785;28;20030;-71
2023/12/30 06:08:49;;;;;;;5.40;1.80;;;;;;;9.04;79.18;98056.13;4941090;28;20067;-74
2023/12/30 06:11:14;;;;;;;6.07;1.90;;;;;;;8.97;79.15;98044.72;4948166;28;20106;-72
2023/12/30 06:13:41;;;;;;;5.28;2.08;;;;;;;9.06;79.32;98056.69;4936046;28;20040;-71
2023/12/30 06:16:10;;;;;;;2.70;2.08;;;;;;;8.99;79.42;98053.34;4947838;29;20023;-72
2023/12/30 06:18:38;;;;;;;2.75;2.10;;;;;;;9.04;79.29;98050.75;4965423;28;20030;-71
2023/12/30 06:21:04;;;;;;;3.58;2.28;;;;;;;9.03;79.90;98065.25;4963182;28;20042;-71
2023/12/30 06:23:31;;;;;;;3.95;2.42;;;;;;;8.98;79.99;98067.84;4964601;28;20054;-70
2023/12/30 06:25:57;;;;;;;2.40;2.00;;;;;;;9.05;79.91;98057.78;4941877;28;20469;-70
2023/12/30 06:28:24;;;;;;;5.25;2.90;;;;;;;9.06;79.92;98059.38;4923665;28;20060;-70
2023/12/30 06:30:50;;;;;;;3.95;2.28;;;;;;;9.05;80.01;98065.84;4949685;28;20486;-71
2023/12/30 06:33:16;;;;;;;2.53;1.90;;;;;;;8.98;80.00;98051.72;4958771;28;20038;-70
2023/12/30 06:35:42;;;;;;;2.92;2.10;;;;;;;9.03;80.31;98054.53;4934321;28;20027;-71
2023/12/30 06:38:07;;;;;;;5.88;2.10;;;;;;;9.02;79.85;98051.00;4939880;29;20085;-71
2023/12/30 06:40:32;;;;;;;3.90;2.05;;;;;;;9.06;79.79;98062.06;4961919;28;20030;-71
2023/12/30 06:42:58;;;;;;;4.15;2.20;;;;;;;8.97;80.24;98060.81;4946825;28;20050;-71
2023/12/30 06:45:23;;;;;;;4.18;2.50;;;;;;;8.98;80.13;98052.50;4954880;28;20028;-71
2023/12/30 06:47:49;;;;;;;4.50;2.00;;;;;;;9.05;80.27;98071.22;4965435;28;20048;-72
2023/12/30 06:50:15;;;;;;;4.72;2.40;;;;;;;9.02;80.20;98069.00;4961634;28;20464;-71
2023/12/30 06:52:41;;;;;;;3.70;1.90;;;;;;;9.05;79.89;98074.69;4950779;29;20637;-71
2023/12/30 06:55:07;;;;;;;6.15;2.58;;;;;;;8.98;80.15;98075.91;4934949;29;20024;-72
2023/12/30 06:57:33;;;;;;;5.35;3.08;;;;;;;9.01;80.51;98083.47;4943715;29;20527;-72
2023/12/30 06:59:58;;;;;;;5.20;2.80;;;;;;;8.97;80.32;98087.69;4939315;29;20035;-72
2023/12/30 07:02:24;;;;;;;6.93;3.97;;;;;;;8.99;80.04;98088.25;4942932;29;20099;-72
2023/12/30 07:04:49;;;;;;;6.82;3.83;;;;;;;9.06;79.66;98105.06;4946834;28;20034;-72
2023/12/30 07:07:14;;;;;;;7.40;3.33;;;;;;;9.01;79.74;98100.41;4910127;29;20032;-72
2023/12/30 07:09:40;;;;;;;12.00;7.53;;;;;;;8.88;79.94;98083.72;4939801;29;20046;-72
2023/12/30 07:12:07;;;;;;;46.50;33.95;;;;;;;8.95;80.28;98093.28;4949677;29;20036;-72
2023/12/30 07:14:34;;;;;;;30.75;26.67;;;;;;;8.93;79.91;98091.91;4925933;29;20058;-71
2023/12/30 07:17:00;;;;;;;5.10;2.97;;;;;;;8.82;80.11;98101.59;4939085;29;20047;-72
2023/12/30 07:19:26;;;;;;;5.28;3.08;;;;;;;8.96;80.07;98113.72;4927759;29;20019;-72
2023/12/30 07:21:52;;;;;;;7.38;3.22;;;;;;;8.98;80.18;98119.66;4932320;29;20063;-72
2023/12/30 07:24:18;;;;;;;4.35;2.40;;;;;;;8.92;80.69;98122.47;4942518;29;20059;-71
2023/12/30 07:26:44;;;;;;;6.00;2.50;;;;;;;8.83;80.52;98115.84;4944134;29;20073;-71
2023/12/30 07:29:09;;;;;;;5.28;2.40;;;;;;;8.86;80.22;98128.81;4923374;29;20082;-72
2023/12/30 07:31:35;;;;;;;7.05;3.05;;;;;;;8.89;80.78;98117.59;4941474;29;20064;-72
2023/12/30 07:34:00;;;;;;;5.60;2.55;;;;;;;8.85;80.62;98132.53;4904167;29;20477;-72
2023/12/30 07:36:26;;;;;;;5.47;2.97;;;;;;;8.84;80.31;98121.00;4932640;29;20055;-71
2023/12/30 07:38:52;;;;;;;5.50;2.60;;;;;;;8.86;80.85;98134.16;4948993;29;20027;-72
2023/12/30 07:41:18;;;;;;;4.78;2.47;;;;;;;8.91;81.20;98136.97;4945247;29;20099;-72
2023/12/30 07:43:43;;;;;;;6.38;2.13;;;;;;;8.96;80.55;98139.78;4946672;28;20106;-73
2023/12/30 07:46:09;;;;;;;7.93;3.00;;;;;;;8.91;80.79;98136.97;4936295;29;20044;-72
2023/12/30 07:48:35;;;;;;;4.32;2.50;;;;;;;8.88;80.72;98126.69;4939413;29;20074;-72
2023/12/30 07:51:00;;;;;;;4.68;2.33;;;;;;;8.94;81.01;98147.22;4936797;29;20047;-72
2023/12/30 07:53:25;;;;;;;5.35;2.53;;;;;;;8.91;80.52;98128.91;4934490;29;20444;-72
2023/12/30 07:55:51;;;;;;;7.50;2.90;;;;;;;8.86;80.52;98144.91;4921251;29;20032;-70
2023/12/30 07:58:16;;;;;;;5.38;2.30;;;;;;;8.94;80.07;98134.63;4948759;29;20506;-70
2023/12/30 08:00:41;;;;;;;8.68;2.30;;;;;;;8.92;80.47;98135.91;4941292;29;20048;-71
2023/12/30 08:03:07;;;;;;;3.85;2.35;;;;;;;8.94;79.93;98131.94;4948723;28;20038;-71
2023/12/30 08:05:32;;;;;;;4.47;2.10;;;;;;;8.89;80.30;98144.47;4965587;28;20035;-70
2023/12/30 08:07:58;;;;;;;6.15;2.30;;;;;;;8.75;80.71;98121.59;4960358;28;20026;-70
2023/12/30 08:10:24;;;;;;;3.10;2.22;;;;;;;8.72;81.46;98117.50;4945591;28;20039;-71
2023/12/30 08:12:49;;;;;;;7.03;2.90;;;;;;;8.84;82.09;98147.03;4936023;28;20023;-73
2023/12/30 08:15:14;;;;;;;6.68;2.53;;;;;;;8.76;83.07;98155.41;4921398;28;20178;-72
2023/12/30 08:17:41;;;;;;;3.92;2.35;;;;;;;8.63;83.76;98144.91;4961198;28;20027;-72
2023/12/30 08:20:07;;;;;;;5.60;2.92;;;;;;;8.67;84.26;98159.50;4939584;28;20040;-72
2023/12/30 08:22:32;;;;;;;5.20;2.53;;;;;;;8.67;85.21;98162.19;4958550;28;20026;-72
2023/12/30 08:24:58;;;;;;;5.70;3.08;;;;;;;8.71;85.23;98163.34;4958960;28;20087;-73
2023/12/30 08:27:23;;;;;;;8.20;3.15;;;;;;;8.74;85.32;98152.16;4933880;28;20030;-72
2023/12/30 08:29:49;;;;;;;6.00;3.17;;;;;;;8.78;84.85;98145.25;4935917;28;20047;-72
2023/12/30 08:32:14;;;;;;;5.30;2.97;;;;;;;8.87;84.71;98143.84;4928277;28;20083;-72
2023/12/30 08:34:40;;;;;;;5.65;3.30;;;;;;;8.90;84.72;98152.25;4932174;28;20129;-72
2023/12/30 08:37:08;;;;;;;5.65;3.28;;;;;;;8.91;85.25;98153.88;4941842;28;20015;-72
2023/12/30 08:39:37;;;;;;;4.85;3.13;;;;;;;8.96;84.25;98155.91;4959711;28;20185;-71
2023/12/30 08:42:04;;;;;;;7.28;2.80;;;;;;;8.82;84.32;98138.38;4935513;28;20050;-71
2023/12/30 08:44:29;;;;;;;7.88;3.17;;;;;;;9.01;84.38;98158.66;4959290;28;20420;-71
2023/12/30 08:46:55;;;;;;;8.40;3.15;;;;;;;8.97;84.18;98152.97;4967196;28;20018;-71
2023/12/30 08:49:21;;;;;;;6.30;3.10;;;;;;;9.01;84.21;98169.41;4941428;29;20046;-70
2023/12/30 08:51:46;;;;;;;6.50;2.83;;;;;;;9.03;83.31;98183.44;4964240;28;20030;-70
2023/12/30 08:54:11;;;;;;;4.43;2.58;;;;;;;8.91;83.38;98174.56;4924614;28;20409;-70
2023/12/30 08:56:37;;;;;;;4.35;2.50;;;;;;;8.94;83.78;98174.09;4959951;28;20099;-71
2023/12/30 08:59:02;;;;;;;6.13;2.65;;;;;;;8.81;84.71;98179.69;4944930;28;20096;-70
2023/12/30 09:01:28;;;;;;;7.95;3.10;;;;;;;8.67;84.89;98162.19;4947912;28;20038;-70
2023/12/30 09:03:54;;;;;;;8.15;3.25;;;;;;;8.78;85.51;98180.97;4943070;28;20039;-71
2023/12/30 09:06:20;;;;;;;9.63;3.58;;;;;;;8.78;85.92;98180.16;4963128;28;20479;-71
2023/12/30 09:08:45;;;;;;;6.20;3.50;;;;;;;8.71;86.97;98190.19;4932527;28;20090;-70
2023/12/30 09:11:19;;;;;;;9.10;3.75;;;;;;;8.72;87.17;98189.16;4950774;28;20026;-71
2023/12/30 09:13:44;;;;;;;6.85;4.28;;;;;;;8.66;88.08;98198.16;4926072;29;20043;-71
2023/12/30 09:16:09;;;;;;;6.43;4.00;;;;;;;8.58;88.54;98179.69;4951851;28;20057;-71
2023/12/30 09:18:35;;;;;;;5.43;3.95;;;;;;;8.54;88.92;98189.25;4940286;28;20057;-72
2023/12/30 09:21:00;;;;;;;9.70;4.57;;;;;;;8.44;88.68;98178.28;4949873;28;20037;-72
2023/12/30 09:23:26;;;;;;;7.53;4.13;;;;;;;8.51;88.82;98184.34;4953415;28;20047;-72
2023/12/30 09:25:51;;;;;;;9.00;4.50;;;;;;;8.42;89.36;98199.16;4964780;28;20047;-72
2023/12/30 09:28:17;;;;;;;6.95;3.45;;;;;;;8.41;89.53;98206.38;4944852;29;20043;-71
2023/12/30 09:30:42;;;;;;;25.15;14.50;;;;;;;8.44;88.84;98210.47;4945549;28;20050;-71
2023/12/30 09:33:08;;;;;;;11.75;5.18;;;;;;;8.45;88.57;98222.84;4948616;28;20334;-72
2023/12/30 09:35:33;;;;;;;7.60;3.08;;;;;;;8.49;87.33;98224.03;4947275;29;20039;-72
2023/12/30 09:37:58;;;;;;;6.53;3.35;;;;;;;8.45;87.68;98229.00;4954840;29;20451;-72
2023/12/30 09:40:24;;;;;;;6.85;3.70;;;;;;;8.45;86.87;98228.22;4962842;28;20449;-72
2023/12/30 09:42:50;;;;;;;5.10;2.60;;;;;;;8.46;85.79;98229.84;4948003;28;20050;-72
2023/12/30 09:45:16;;;;;;;7.57;3.45;;;;;;;8.34;86.25;98227.94;4961438;28;20031;-72
2023/12/30 09:47:42;;;;;;;6.68;3.25;;;;;;;8.31;86.04;98212.31;4952381;28;20399;-71
2023/12/30 09:50:08;;;;;;;7.72;2.90;;;;;;;8.41;85.81;98216.28;4927794;29;20483;-71
2023/12/30 09:52:34;;;;;;;5.45;2.63;;;;;;;8.46;85.76;98224.47;4950197;29;20042;-71
2023/12/30 09:54:59;;;;;;;9.52;3.00;;;;;;;8.44;85.24;98221.22;4942840;28;20555;-72
2023/12/30 09:57:25;;;;;;;6.65;2.50;;;;;;;8.48;84.42;98222.38;4960189;28;20462;-72
2023/12/30 09:59:51;;;;;;;9.93;3.30;;;;;;;8.44;84.35;98207.78;4971677;28;20023;-72
2023/12/30 10:02:16;;;;;;;10.27;3.15;;;;;;;8.49;84.38;98218.66;4965364;28;20048;-72
2023/12/30 10:04:41;;;;;;;7.95;2.58;;;;;;;8.45;84.90;98217.50;4933970;28;20074;-72
2023/12/30 10:07:07;;;;;;;6.70;2.83;;;;;;;8.41;83.97;98205.56;4960604;28;21350;-72
2023/12/30 10:09:33;;;;;;;6.40;2.75;;;;;;;8.49;84.15;98207.91;4951062;28;20487;-72
2023/12/30 10:11:58;;;;;;;9.07;2.70;;;;;;;8.54;83.87;98200.00;4939493;28;20056;-71
2023/12/30 10:14:24;;;;;;;9.13;3.40;;;;;;;8.66;83.91;98211.56;4942727;29;20479;-71
2023/12/30 10:16:49;;;;;;;9.48;5.22;;;;;;;8.60;83.49;98189.16;4947519;28;20051;-70
2023/12/30 10:19:16;;;;;;;10.90;3.70;;;;;;;8.62;83.17;98191.59;4967020;28;20078;-72
2023/12/30 10:21:42;;;;;;;8.05;2.72;;;;;;;8.83;83.25;98207.13;4954217;28;20575;-72
2023/12/30 10:24:07;;;;;;;7.28;2.58;;;;;;;8.87;83.32;98202.91;4941287;28;20094;-72
2023/12/30 10:26:34;;;;;;;6.28;3.20;;;;;;;8.82;82.94;98189.41;4948462;28;20051;-72
2023/12/30 10:28:59;;;;;;;9.00;2.60;;;;;;;8.90;82.47;98183.66;4954657;28;20488;-72
2023/12/30 10:31:25;;;;;;;6.45;2.28;;;;;;;8.99;82.58;98188.47;4945015;29;20094;-72
2023/12/30 10:33:54;;;;;;;9.38;2.80;;;;;;;9.05;81.46;98189.41;4951005;28;20461;-72
2023/12/30 10:36:19;;;;;;;6.13;2.40;;;;;;;8.98;82.00;98180.66;4953932;29;20073;-72
2023/12/30 10:38:45;;;;;;;6.90;2.42;;;;;;;9.06;81.74;98193.69;4962391;28;20046;-72
2023/12/30 10:41:11;;;;;;;9.32;2.58;;;;;;;9.15;81.71;98213.78;4960337;28;20519;-72
2023/12/30 10:43:38;;;;;;;7.63;2.55;;;;;;;9.22;81.79;98219.84;4949673;29;20032;-72
2023/12/30 10:46:09;;;;;;;7.20;2.47;;;;;;;9.33;81.45;98221.72;4949449;28;20405;-72
2023/12/30 10:48:37;;;;;;;5.43;2.33;;;;;;;9.49;81.45;98218.31;4938271;29;20031;-72
2023/12/30 10:51:03;;;;;;;7.72;2.53;;;;;;;9.54;81.10;98201.47;4947769;28;20031;-72
2023/12/30 10:53:34;;;;;;;6.30;2.20;;;;;;;9.38;80.33;98186.88;4936358;28;20040;-72
2023/12/30 10:56:03;;;;;;;8.05;2.50;;;;;;;9.55;80.21;98214.66;4935905;29;20098;-72
2023/12/30 10:58:39;;;;;;;4.13;2.10;;;;;;;9.65;80.23;98222.94;4933261;28;20081;-72
2023/12/30 11:01:05;;;;;;;7.18;2.58;;;;;;;9.70;80.22;98215.00;4931011;29;20043;-72
2023/12/30 11:03:32;;;;;;;6.30;2.90;;;;;;;9.61;80.24;98212.91;4941596;28;20031;-72
2023/12/30 11:06:07;;;;;;;4.97;2.30;;;;;;;9.63;80.04;98211.63;4943865;29;20478;-72
2023/12/30 11:08:32;;;;;;;4.57;2.05;;;;;;;9.64;80.39;98213.25;4948906;29;20097;-72
2023/12/30 11:10:59;;;;;;;6.70;2.42;;;;;;;9.79;80.20;98214.59;4953481;29;20479;-72
2023/12/30 11:13:25;;;;;;;4.88;2.47;;;;;;;9.80;80.59;98210.88;4940738;28;20035;-72
2023/12/30 11:15:50;;;;;;;6.63;2.55;;;;;;;9.95;80.21;98205.78;4963051;28;20031;-72
2023/12/30 11:18:46;;;;;;;4.43;2.50;;;;;;;9.94;80.21;98206.84;4929641;29;20035;-72
2023/12/30 11:21:11;;;;;;;8.10;2.30;;;;;;;9.87;80.46;98195.41;4926492;29;20043;-72
2023/12/30 11:23:36;;;;;;;3.17;2.15;;;;;;;9.98;80.06;98197.22;4959408;28;20023;-72
2023/12/30 11:26:04;;;;;;;5.53;2.50;;;;;;;9.94;80.67;98190.72;4927548;29;20195;-72
2023/12/30 11:28:32;;;;;;;8.00;2.83;;;;;;;10.20;80.15;98201.72;4953974;28;20094;-71
2023/12/30 11:31:01;;;;;;;7.78;2.60;;;;;;;10.09;80.20;98185.59;4948579;29;20031;-71
2023/12/30 11:33:27;;;;;;;5.53;2.28;;;;;;;10.21;79.99;98197.16;4942417;28;20051;-71
2023/12/30 11:35:55;;;;;;;6.07;2.50;;;;;;;10.35;79.56;98188.53;4938113;28;20596;-70